sensor_id;sensor_type;location;lat;lon;timestamp;temperature;humidity
64705;DHT22;51131;52.298;13.686;2022-12-05T00:00:56;16.70;55.60
64705;DHT22;51131;52.298;13.686;2022-12-05T00:03:23;16.70;55.50
64705;DHT22;51131;52.298;13.686;2022-12-05T00:05:49;16.70;55.10
64705;DHT22;51131;52.298;13.686;2022-12-05T00:08:16;16.80;54.70
64705;DHT22;51131;52.298;13.686;2022-12-05T00:10:43;16.80;54.60
64705;DHT22;51131;52.298;13.686;2022-12-05T00:13:09;16.90;54.30
64705;DHT22;51131;52.298;13.686;2022-12-05T00:15:39;16.90;54.00
64705;DHT22;51131;52.298;13.686;2022-12-05T00:18:06;16.90;53.90
64705;DHT22;51131;52.298;13.686;2022-12-05T00:20:32;16.90;54.80
64705;DHT22;51131;52.298;13.686;2022-12-05T00:22:59;16.90;54.70
64705;DHT22;51131;52.298;13.686;2022-12-05T00:25:26;16.90;54.50
64705;DHT22;51131;52.298;13.686;2022-12-05T00:27:53;16.90;54.10
64705;DHT22;51131;52.298;13.686;2022-12-05T00:30:19;16.90;54.20
64705;DHT22;51131;52.298;13.686;2022-12-05T00:32:46;16.80;54.20
64705;DHT22;51131;52.298;13.686;2022-12-05T00:35:12;16.80;54.20
64705;DHT22;51131;52.298;13.686;2022-12-05T00:37:39;16.80;55.00
64705;DHT22;51131;52.298;13.686;2022-12-05T00:40:06;16.80;55.00
64705;DHT22;51131;52.298;13.686;2022-12-05T00:42:32;16.80;54.80
64705;DHT22;51131;52.298;13.686;2022-12-05T00:44:59;16.80;54.40
64705;DHT22;51131;52.298;13.686;2022-12-05T00:47:26;16.80;54.60
64705;DHT22;51131;52.298;13.686;2022-12-05T00:49:52;16.80;54.50
64705;DHT22;51131;52.298;13.686;2022-12-05T00:52:19;16.80;55.30
64705;DHT22;51131;52.298;13.686;2022-12-05T00:54:45;16.80;54.90
64705;DHT22;51131;52.298;13.686;2022-12-05T00:57:12;16.80;54.90
64705;DHT22;51131;52.298;13.686;2022-12-05T00:59:39;16.80;54.70
64705;DHT22;51131;52.298;13.686;2022-12-05T01:02:05;16.80;54.90
64705;DHT22;51131;52.298;13.686;2022-12-05T01:04:32;16.70;54.30
64705;DHT22;51131;52.298;13.686;2022-12-05T01:06:59;16.80;54.70
64705;DHT22;51131;52.298;13.686;2022-12-05T01:09:25;16.80;54.50
64705;DHT22;51131;52.298;13.686;2022-12-05T01:11:52;16.80;54.90
64705;DHT22;51131;52.298;13.686;2022-12-05T01:14:19;16.80;54.30
64705;DHT22;51131;52.298;13.686;2022-12-05T01:16:47;16.80;54.70
64705;DHT22;51131;52.298;13.686;2022-12-05T01:19:15;16.80;54.80
64705;DHT22;51131;52.298;13.686;2022-12-05T01:21:42;16.80;55.10
64705;DHT22;51131;52.298;13.686;2022-12-05T01:24:09;16.80;55.10
64705;DHT22;51131;52.298;13.686;2022-12-05T01:26:37;16.80;54.80
64705;DHT22;51131;52.298;13.686;2022-12-05T01:29:03;16.80;54.40
64705;DHT22;51131;52.298;13.686;2022-12-05T01:31:32;16.80;54.50
64705;DHT22;51131;52.298;13.686;2022-12-05T01:33:59;16.80;55.20
64705;DHT22;51131;52.298;13.686;2022-12-05T01:36:27;16.80;55.40
64705;DHT22;51131;52.298;13.686;2022-12-05T01:38:54;16.80;55.20
64705;DHT22;51131;52.298;13.686;2022-12-05T01:41:25;16.80;54.90
64705;DHT22;51131;52.298;13.686;2022-12-05T01:43:57;16.80;54.60
64705;DHT22;51131;52.298;13.686;2022-12-05T01:46:24;16.80;54.70
64705;DHT22;51131;52.298;13.686;2022-12-05T01:48:52;16.70;55.00
64705;DHT22;51131;52.298;13.686;2022-12-05T01:51:21;16.80;55.40
64705;DHT22;51131;52.298;13.686;2022-12-05T01:53:48;16.70;55.00
64705;DHT22;51131;52.298;13.686;2022-12-05T01:56:15;16.70;54.80
64705;DHT22;51131;52.298;13.686;2022-12-05T01:58:41;16.70;54.30
64705;DHT22;51131;52.298;13.686;2022-12-05T02:01:10;16.70;54.90
64705;DHT22;51131;52.298;13.686;2022-12-05T02:03:37;16.70;55.20
64705;DHT22;51131;52.298;13.686;2022-12-05T02:06:06;16.80;55.20
64705;DHT22;51131;52.298;13.686;2022-12-05T02:08:32;16.80;55.20
64705;DHT22;51131;52.298;13.686;2022-12-05T02:10:59;16.70;54.90
64705;DHT22;51131;52.298;13.686;2022-12-05T02:15:59;16.70;55.10
64705;DHT22;51131;52.298;13.686;2022-12-05T02:21:05;16.70;55.20
64705;DHT22;51131;52.298;13.686;2022-12-05T02:33:52;16.70;55.30
64705;DHT22;51131;52.298;13.686;2022-12-05T02:36:20;16.70;55.10
64705;DHT22;51131;52.298;13.686;2022-12-05T02:38:59;16.70;54.90
64705;DHT22;51131;52.298;13.686;2022-12-05T02:41:32;16.70;54.70
64705;DHT22;51131;52.298;13.686;2022-12-05T02:44:44;16.70;54.60
64705;DHT22;51131;52.298;13.686;2022-12-05T02:46:50;16.70;55.20
64705;DHT22;51131;52.298;13.686;2022-12-05T02:49:19;16.70;55.20
64705;DHT22;51131;52.298;13.686;2022-12-05T02:51:47;16.70;55.00
64705;DHT22;51131;52.298;13.686;2022-12-05T02:54:17;16.80;55.10
64705;DHT22;51131;52.298;13.686;2022-12-05T02:56:45;16.70;54.60
64705;DHT22;51131;52.298;13.686;2022-12-05T02:59:12;16.70;55.20
64705;DHT22;51131;52.298;13.686;2022-12-05T03:01:46;16.70;55.10
64705;DHT22;51131;52.298;13.686;2022-12-05T03:04:15;16.70;54.90
64705;DHT22;51131;52.298;13.686;2022-12-05T03:06:52;16.70;54.70
64705;DHT22;51131;52.298;13.686;2022-12-05T03:09:23;16.70;54.90
64705;DHT22;51131;52.298;13.686;2022-12-05T03:11:53;16.70;54.90
64705;DHT22;51131;52.298;13.686;2022-12-05T03:14:22;16.70;55.00
64705;DHT22;51131;52.298;13.686;2022-12-05T03:16:51;16.70;54.80
64705;DHT22;51131;52.298;13.686;2022-12-05T03:21:51;16.70;55.10
64705;DHT22;51131;52.298;13.686;2022-12-05T03:24:18;16.70;54.80
64705;DHT22;51131;52.298;13.686;2022-12-05T03:26:56;16.70;54.80
64705;DHT22;51131;52.298;13.686;2022-12-05T03:29:33;16.70;55.00
64705;DHT22;51131;52.298;13.686;2022-12-05T03:32:17;16.70;54.70
64705;DHT22;51131;52.298;13.686;2022-12-05T03:34:48;16.70;54.50
64705;DHT22;51131;52.298;13.686;2022-12-05T03:37:23;16.70;54.90
64705;DHT22;51131;52.298;13.686;2022-12-05T03:39:54;16.70;55.00
64705;DHT22;51131;52.298;13.686;2022-12-05T03:42:27;16.70;55.00
64705;DHT22;51131;52.298;13.686;2022-12-05T03:44:59;16.70;54.80
64705;DHT22;51131;52.298;13.686;2022-12-05T03:47:30;16.70;54.80
64705;DHT22;51131;52.298;13.686;2022-12-05T03:49:59;16.70;54.80
64705;DHT22;51131;52.298;13.686;2022-12-05T03:52:41;16.70;54.80
64705;DHT22;51131;52.298;13.686;2022-12-05T03:55:30;16.70;54.80
64705;DHT22;51131;52.298;13.686;2022-12-05T03:58:00;16.60;54.70
64705;DHT22;51131;52.298;13.686;2022-12-05T04:00:28;16.70;54.80
64705;DHT22;51131;52.298;13.686;2022-12-05T04:03:10;16.70;54.70
64705;DHT22;51131;52.298;13.686;2022-12-05T04:05:47;16.70;55.00
64705;DHT22;51131;52.298;13.686;2022-12-05T04:10:48;16.70;54.60
64705;DHT22;51131;52.298;13.686;2022-12-05T04:13:17;16.70;54.70
64705;DHT22;51131;52.298;13.686;2022-12-05T04:15:47;16.70;54.60
64705;DHT22;51131;52.298;13.686;2022-12-05T04:18:33;16.70;54.60
64705;DHT22;51131;52.298;13.686;2022-12-05T04:21:00;16.60;54.60
64705;DHT22;51131;52.298;13.686;2022-12-05T04:23:46;16.70;54.90
64705;DHT22;51131;52.298;13.686;2022-12-05T04:26:33;16.70;54.70
64705;DHT22;51131;52.298;13.686;2022-12-05T04:29:06;16.70;54.50
64705;DHT22;51131;52.298;13.686;2022-12-05T04:31:36;16.70;54.70
64705;DHT22;51131;52.298;13.686;2022-12-05T04:34:06;17.20;55.00
64705;DHT22;51131;52.298;13.686;2022-12-05T04:36:44;16.80;54.50
64705;DHT22;51131;52.298;13.686;2022-12-05T04:44:17;16.90;53.90
64705;DHT22;51131;52.298;13.686;2022-12-05T04:46:45;16.90;53.90
64705;DHT22;51131;52.298;13.686;2022-12-05T04:49:15;16.90;53.70
64705;DHT22;51131;52.298;13.686;2022-12-05T04:51:42;16.90;54.50
64705;DHT22;51131;52.298;13.686;2022-12-05T04:54:21;17.10;54.40
64705;DHT22;51131;52.298;13.686;2022-12-05T04:56:49;16.90;54.10
64705;DHT22;51131;52.298;13.686;2022-12-05T04:59:19;16.80;54.40
64705;DHT22;51131;52.298;13.686;2022-12-05T05:01:50;16.80;54.20
64705;DHT22;51131;52.298;13.686;2022-12-05T05:04:29;16.80;53.80
64705;DHT22;51131;52.298;13.686;2022-12-05T05:06:57;16.80;54.10
64705;DHT22;51131;52.298;13.686;2022-12-05T05:09:23;16.80;54.20
64705;DHT22;51131;52.298;13.686;2022-12-05T05:11:50;16.80;53.80
64705;DHT22;51131;52.298;13.686;2022-12-05T05:14:17;17.10;54.60
64705;DHT22;51131;52.298;13.686;2022-12-05T05:16:43;16.80;54.30
64705;DHT22;51131;52.298;13.686;2022-12-05T05:19:10;16.80;53.90
64705;DHT22;51131;52.298;13.686;2022-12-05T05:21:38;16.80;54.20
64705;DHT22;51131;52.298;13.686;2022-12-05T05:24:06;16.80;54.30
64705;DHT22;51131;52.298;13.686;2022-12-05T05:26:34;16.80;54.20
64705;DHT22;51131;52.298;13.686;2022-12-05T05:29:02;16.80;54.00
64705;DHT22;51131;52.298;13.686;2022-12-05T05:31:28;17.30;54.40
64705;DHT22;51131;52.298;13.686;2022-12-05T05:33:55;17.10;54.40
64705;DHT22;51131;52.298;13.686;2022-12-05T05:36:23;16.80;53.90
64705;DHT22;51131;52.298;13.686;2022-12-05T05:38:50;16.70;54.00
64705;DHT22;51131;52.298;13.686;2022-12-05T05:41:19;16.80;54.10
64705;DHT22;51131;52.298;13.686;2022-12-05T05:43:46;16.70;54.70
64705;DHT22;51131;52.298;13.686;2022-12-05T05:46:13;16.70;54.20
64705;DHT22;51131;52.298;13.686;2022-12-05T05:48:40;16.80;54.10
64705;DHT22;51131;52.298;13.686;2022-12-05T05:51:07;16.80;54.00
64705;DHT22;51131;52.298;13.686;2022-12-05T05:53:35;16.80;54.20
64705;DHT22;51131;52.298;13.686;2022-12-05T05:56:05;16.80;54.20
64705;DHT22;51131;52.298;13.686;2022-12-05T05:58:32;16.70;54.20
64705;DHT22;51131;52.298;13.686;2022-12-05T06:01:09;16.80;54.00
64705;DHT22;51131;52.298;13.686;2022-12-05T06:03:36;16.80;54.20
64705;DHT22;51131;52.298;13.686;2022-12-05T06:06:04;16.70;54.10
64705;DHT22;51131;52.298;13.686;2022-12-05T06:08:31;16.70;54.20
64705;DHT22;51131;52.298;13.686;2022-12-05T06:10:58;16.70;54.10
64705;DHT22;51131;52.298;13.686;2022-12-05T06:13:26;16.70;54.10
64705;DHT22;51131;52.298;13.686;2022-12-05T06:15:52;16.70;54.10
64705;DHT22;51131;52.298;13.686;2022-12-05T06:18:19;16.80;54.00
64705;DHT22;51131;52.298;13.686;2022-12-05T06:20:55;16.70;54.00
64705;DHT22;51131;52.298;13.686;2022-12-05T06:23:22;16.70;54.00
64705;DHT22;51131;52.298;13.686;2022-12-05T06:25:50;16.70;54.00
64705;DHT22;51131;52.298;13.686;2022-12-05T06:28:17;16.80;54.60
64705;DHT22;51131;52.298;13.686;2022-12-05T06:30:44;16.70;53.90
64705;DHT22;51131;52.298;13.686;2022-12-05T06:33:11;16.70;53.80
64705;DHT22;51131;52.298;13.686;2022-12-05T06:35:38;16.70;54.00
64705;DHT22;51131;52.298;13.686;2022-12-05T06:38:05;16.80;53.80
64705;DHT22;51131;52.298;13.686;2022-12-05T06:40:32;16.80;54.00
64705;DHT22;51131;52.298;13.686;2022-12-05T06:42:58;16.90;54.10
64705;DHT22;51131;52.298;13.686;2022-12-05T06:45:25;16.80;53.80
64705;DHT22;51131;52.298;13.686;2022-12-05T06:47:52;16.70;53.70
64705;DHT22;51131;52.298;13.686;2022-12-05T06:50:19;16.70;53.60
64705;DHT22;51131;52.298;13.686;2022-12-05T06:52:45;16.80;54.00
64705;DHT22;51131;52.298;13.686;2022-12-05T06:55:12;16.80;53.80
64705;DHT22;51131;52.298;13.686;2022-12-05T06:57:38;16.70;53.90
64705;DHT22;51131;52.298;13.686;2022-12-05T07:00:05;16.70;53.70
64705;DHT22;51131;52.298;13.686;2022-12-05T07:02:51;16.70;53.70
64705;DHT22;51131;52.298;13.686;2022-12-05T07:05:18;16.70;53.70
64705;DHT22;51131;52.298;13.686;2022-12-05T07:07:45;16.70;53.80
64705;DHT22;51131;52.298;13.686;2022-12-05T07:10:12;16.80;53.90
64705;DHT22;51131;52.298;13.686;2022-12-05T07:12:38;16.70;54.20
64705;DHT22;51131;52.298;13.686;2022-12-05T07:15:05;16.70;53.80
64705;DHT22;51131;52.298;13.686;2022-12-05T07:17:34;16.70;53.60
64705;DHT22;51131;52.298;13.686;2022-12-05T07:20:01;16.80;53.80
64705;DHT22;51131;52.298;13.686;2022-12-05T07:22:28;16.70;53.70
64705;DHT22;51131;52.298;13.686;2022-12-05T07:24:54;16.70;53.60
64705;DHT22;51131;52.298;13.686;2022-12-05T07:27:21;16.80;53.70
64705;DHT22;51131;52.298;13.686;2022-12-05T07:29:53;16.80;53.70
64705;DHT22;51131;52.298;13.686;2022-12-05T07:32:19;16.80;53.50
64705;DHT22;51131;52.298;13.686;2022-12-05T07:34:46;16.90;53.60
64705;DHT22;51131;52.298;13.686;2022-12-05T07:37:20;16.90;53.40
64705;DHT22;51131;52.298;13.686;2022-12-05T07:39:46;16.90;53.30
64705;DHT22;51131;52.298;13.686;2022-12-05T07:42:15;16.90;53.10
64705;DHT22;51131;52.298;13.686;2022-12-05T07:44:42;16.90;53.40
64705;DHT22;51131;52.298;13.686;2022-12-05T07:47:08;16.90;54.10
64705;DHT22;51131;52.298;13.686;2022-12-05T07:49:35;16.80;53.80
64705;DHT22;51131;52.298;13.686;2022-12-05T07:52:02;16.80;53.70
64705;DHT22;51131;52.298;13.686;2022-12-05T07:54:29;16.80;53.60
64705;DHT22;51131;52.298;13.686;2022-12-05T07:56:55;16.80;53.60
64705;DHT22;51131;52.298;13.686;2022-12-05T07:59:22;16.80;53.40
64705;DHT22;51131;52.298;13.686;2022-12-05T08:01:48;16.80;53.40
64705;DHT22;51131;52.298;13.686;2022-12-05T08:04:15;16.70;53.40
64705;DHT22;51131;52.298;13.686;2022-12-05T08:06:42;16.80;53.40
64705;DHT22;51131;52.298;13.686;2022-12-05T08:09:09;16.70;53.60
64705;DHT22;51131;52.298;13.686;2022-12-05T08:11:35;16.70;53.40
64705;DHT22;51131;52.298;13.686;2022-12-05T08:14:03;16.70;53.30
64705;DHT22;51131;52.298;13.686;2022-12-05T08:16:30;16.70;54.00
64705;DHT22;51131;52.298;13.686;2022-12-05T08:18:58;16.70;53.30
64705;DHT22;51131;52.298;13.686;2022-12-05T08:21:25;16.70;53.30
64705;DHT22;51131;52.298;13.686;2022-12-05T08:23:52;16.70;53.40
64705;DHT22;51131;52.298;13.686;2022-12-05T08:26:23;16.70;53.20
64705;DHT22;51131;52.298;13.686;2022-12-05T08:28:54;16.70;53.30
64705;DHT22;51131;52.298;13.686;2022-12-05T08:31:21;16.70;53.20
64705;DHT22;51131;52.298;13.686;2022-12-05T08:33:50;16.70;53.30
64705;DHT22;51131;52.298;13.686;2022-12-05T08:36:24;16.70;53.30
64705;DHT22;51131;52.298;13.686;2022-12-05T08:38:54;16.60;53.20
64705;DHT22;51131;52.298;13.686;2022-12-05T08:41:21;16.60;53.60
64705;DHT22;51131;52.298;13.686;2022-12-05T08:43:48;16.60;53.80
64705;DHT22;51131;52.298;13.686;2022-12-05T08:46:14;16.70;53.70
64705;DHT22;51131;52.298;13.686;2022-12-05T08:48:41;16.70;53.40
64705;DHT22;51131;52.298;13.686;2022-12-05T08:51:08;16.70;53.20
64705;DHT22;51131;52.298;13.686;2022-12-05T08:53:35;16.70;53.40
64705;DHT22;51131;52.298;13.686;2022-12-05T08:56:09;16.70;53.40
64705;DHT22;51131;52.298;13.686;2022-12-05T08:58:36;16.70;53.00
64705;DHT22;51131;52.298;13.686;2022-12-05T09:01:13;16.70;53.30
64705;DHT22;51131;52.298;13.686;2022-12-05T09:03:41;16.70;53.30
64705;DHT22;51131;52.298;13.686;2022-12-05T09:08:40;16.70;53.30
64705;DHT22;51131;52.298;13.686;2022-12-05T09:11:14;16.70;53.10
64705;DHT22;51131;52.298;13.686;2022-12-05T09:13:41;16.70;53.10
64705;DHT22;51131;52.298;13.686;2022-12-05T09:16:08;16.70;53.20
64705;DHT22;51131;52.298;13.686;2022-12-05T09:18:35;16.70;53.10
64705;DHT22;51131;52.298;13.686;2022-12-05T09:21:06;16.70;53.60
64705;DHT22;51131;52.298;13.686;2022-12-05T09:23:33;16.70;53.20
64705;DHT22;51131;52.298;13.686;2022-12-05T09:25:59;16.80;53.10
64705;DHT22;51131;52.298;13.686;2022-12-05T09:28:31;16.80;53.30
64705;DHT22;51131;52.298;13.686;2022-12-05T09:30:58;16.70;53.20
64705;DHT22;51131;52.298;13.686;2022-12-05T09:33:30;16.80;53.30
64705;DHT22;51131;52.298;13.686;2022-12-05T09:35:57;16.70;52.80
64705;DHT22;51131;52.298;13.686;2022-12-05T09:38:24;16.70;53.00
64705;DHT22;51131;52.298;13.686;2022-12-05T09:40:59;16.70;53.10
64705;DHT22;51131;52.298;13.686;2022-12-05T09:46:03;16.80;53.30
64705;DHT22;51131;52.298;13.686;2022-12-05T09:48:33;16.80;53.30
64705;DHT22;51131;52.298;13.686;2022-12-05T09:51:00;16.80;52.90
64705;DHT22;51131;52.298;13.686;2022-12-05T09:53:32;16.70;53.20
64705;DHT22;51131;52.298;13.686;2022-12-05T09:56:01;16.70;53.00
64705;DHT22;51131;52.298;13.686;2022-12-05T09:58:32;16.70;53.10
64705;DHT22;51131;52.298;13.686;2022-12-05T10:06:46;16.70;53.20
64705;DHT22;51131;52.298;13.686;2022-12-05T10:17:22;16.70;53.10
64705;DHT22;51131;52.298;13.686;2022-12-05T10:19:49;16.70;52.90
64705;DHT22;51131;52.298;13.686;2022-12-05T10:22:19;16.70;52.90
64705;DHT22;51131;52.298;13.686;2022-12-05T10:24:49;16.70;53.20
64705;DHT22;51131;52.298;13.686;2022-12-05T10:27:18;16.80;53.20
64705;DHT22;51131;52.298;13.686;2022-12-05T10:32:34;16.70;53.10
64705;DHT22;51131;52.298;13.686;2022-12-05T10:37:48;16.70;53.20
64705;DHT22;51131;52.298;13.686;2022-12-05T10:40:15;16.70;53.20
64705;DHT22;51131;52.298;13.686;2022-12-05T10:42:42;16.70;53.10
64705;DHT22;51131;52.298;13.686;2022-12-05T10:45:19;16.70;53.20
64705;DHT22;51131;52.298;13.686;2022-12-05T10:47:47;16.70;53.10
64705;DHT22;51131;52.298;13.686;2022-12-05T10:50:35;16.70;53.30
64705;DHT22;51131;52.298;13.686;2022-12-05T10:53:01;16.70;53.00
64705;DHT22;51131;52.298;13.686;2022-12-05T10:55:50;16.80;53.20
64705;DHT22;51131;52.298;13.686;2022-12-05T10:58:38;16.70;53.10
64705;DHT22;51131;52.298;13.686;2022-12-05T11:01:20;16.70;53.00
64705;DHT22;51131;52.298;13.686;2022-12-05T11:03:54;16.80;53.10
64705;DHT22;51131;52.298;13.686;2022-12-05T11:06:24;16.80;53.00
64705;DHT22;51131;52.298;13.686;2022-12-05T11:08:52;16.90;53.00
64705;DHT22;51131;52.298;13.686;2022-12-05T11:11:31;16.90;53.00
64705;DHT22;51131;52.298;13.686;2022-12-05T11:18:54;16.90;53.40
64705;DHT22;51131;52.298;13.686;2022-12-05T11:21:20;16.90;53.40
64705;DHT22;51131;52.298;13.686;2022-12-05T11:23:47;16.90;53.30
64705;DHT22;51131;52.298;13.686;2022-12-05T11:26:33;16.90;53.50
64705;DHT22;51131;52.298;13.686;2022-12-05T11:29:01;16.80;52.90
64705;DHT22;51131;52.298;13.686;2022-12-05T11:31:29;16.80;52.90
64705;DHT22;51131;52.298;13.686;2022-12-05T11:34:01;16.90;53.50
64705;DHT22;51131;52.298;13.686;2022-12-05T11:36:42;16.80;53.40
64705;DHT22;51131;52.298;13.686;2022-12-05T11:39:12;16.80;53.00
64705;DHT22;51131;52.298;13.686;2022-12-05T11:44:31;16.80;53.30
64705;DHT22;51131;52.298;13.686;2022-12-05T11:47:20;16.80;53.50
64705;DHT22;51131;52.298;13.686;2022-12-05T12:01:04;16.80;53.30
64705;DHT22;51131;52.298;13.686;2022-12-05T12:21:55;16.80;53.30
64705;DHT22;51131;52.298;13.686;2022-12-05T12:32:11;16.90;53.10
64705;DHT22;51131;52.298;13.686;2022-12-05T12:34:46;16.80;52.90
64705;DHT22;51131;52.298;13.686;2022-12-05T12:37:37;16.70;53.20
64705;DHT22;51131;52.298;13.686;2022-12-05T12:51:18;16.80;53.10
64705;DHT22;51131;52.298;13.686;2022-12-05T12:56:34;16.80;53.10
64705;DHT22;51131;52.298;13.686;2022-12-05T13:04:04;16.80;53.00
64705;DHT22;51131;52.298;13.686;2022-12-05T13:06:57;16.80;53.20
64705;DHT22;51131;52.298;13.686;2022-12-05T13:09:33;16.80;53.10
64705;DHT22;51131;52.298;13.686;2022-12-05T13:12:01;16.80;53.20
64705;DHT22;51131;52.298;13.686;2022-12-05T13:14:30;16.80;53.70
64705;DHT22;51131;52.298;13.686;2022-12-05T13:16:57;16.70;53.10
64705;DHT22;51131;52.298;13.686;2022-12-05T13:19:27;16.80;53.20
64705;DHT22;51131;52.298;13.686;2022-12-05T13:21:55;16.80;53.30
64705;DHT22;51131;52.298;13.686;2022-12-05T13:24:24;16.70;53.10
64705;DHT22;51131;52.298;13.686;2022-12-05T13:26:51;16.70;53.00
64705;DHT22;51131;52.298;13.686;2022-12-05T13:29:23;16.70;53.10
64705;DHT22;51131;52.298;13.686;2022-12-05T13:31:51;16.70;53.00
64705;DHT22;51131;52.298;13.686;2022-12-05T13:34:31;16.70;53.00
64705;DHT22;51131;52.298;13.686;2022-12-05T13:37:08;16.80;53.20
64705;DHT22;51131;52.298;13.686;2022-12-05T13:39:54;16.80;53.10
64705;DHT22;51131;52.298;13.686;2022-12-05T13:42:40;16.70;53.10
64705;DHT22;51131;52.298;13.686;2022-12-05T13:45:09;16.70;53.20
64705;DHT22;51131;52.298;13.686;2022-12-05T13:52:46;16.70;53.20
64705;DHT22;51131;52.298;13.686;2022-12-05T13:55:30;16.80;53.30
64705;DHT22;51131;52.298;13.686;2022-12-05T13:58:03;16.80;53.30
64705;DHT22;51131;52.298;13.686;2022-12-05T14:00:49;16.80;53.30
64705;DHT22;51131;52.298;13.686;2022-12-05T14:06:00;16.80;53.30
64705;DHT22;51131;52.298;13.686;2022-12-05T14:15:50;16.80;53.50
64705;DHT22;51131;52.298;13.686;2022-12-05T14:23:27;16.50;53.30
64705;DHT22;51131;52.298;13.686;2022-12-05T14:28:37;16.70;53.60
64705;DHT22;51131;52.298;13.686;2022-12-05T14:33:41;16.80;53.60
64705;DHT22;51131;52.298;13.686;2022-12-05T14:36:12;16.80;53.60
64705;DHT22;51131;52.298;13.686;2022-12-05T14:38:39;16.80;53.60
64705;DHT22;51131;52.298;13.686;2022-12-05T14:41:11;16.70;53.40
64705;DHT22;51131;52.298;13.686;2022-12-05T14:43:38;16.80;53.60
64705;DHT22;51131;52.298;13.686;2022-12-05T14:46:06;16.80;53.60
64705;DHT22;51131;52.298;13.686;2022-12-05T14:48:43;16.40;53.00
64705;DHT22;51131;52.298;13.686;2022-12-05T14:56:28;17.00;53.30
64705;DHT22;51131;52.298;13.686;2022-12-05T14:58:56;17.00;53.30
64705;DHT22;51131;52.298;13.686;2022-12-05T15:01:28;17.00;53.20
64705;DHT22;51131;52.298;13.686;2022-12-05T15:06:22;17.00;53.40
64705;DHT22;51131;52.298;13.686;2022-12-05T15:08:52;17.00;53.30
64705;DHT22;51131;52.298;13.686;2022-12-05T15:11:21;17.00;53.30
64705;DHT22;51131;52.298;13.686;2022-12-05T15:16:38;16.90;53.20
64705;DHT22;51131;52.298;13.686;2022-12-05T15:19:08;16.90;53.30
64705;DHT22;51131;52.298;13.686;2022-12-05T15:21:39;16.90;53.40
64705;DHT22;51131;52.298;13.686;2022-12-05T15:24:11;16.90;53.40
64705;DHT22;51131;52.298;13.686;2022-12-05T15:26:49;16.90;53.20
64705;DHT22;51131;52.298;13.686;2022-12-05T15:31:47;16.90;53.50
64705;DHT22;51131;52.298;13.686;2022-12-05T15:34:16;16.90;53.30
64705;DHT22;51131;52.298;13.686;2022-12-05T15:36:46;16.90;53.60
64705;DHT22;51131;52.298;13.686;2022-12-05T15:39:20;16.90;53.70
64705;DHT22;51131;52.298;13.686;2022-12-05T15:41:51;16.90;53.70
64705;DHT22;51131;52.298;13.686;2022-12-05T15:44:18;16.90;53.50
64705;DHT22;51131;52.298;13.686;2022-12-05T15:46:53;16.90;53.70
64705;DHT22;51131;52.298;13.686;2022-12-05T15:49:24;16.90;53.60
64705;DHT22;51131;52.298;13.686;2022-12-05T15:51:52;16.90;53.20
64705;DHT22;51131;52.298;13.686;2022-12-05T15:54:22;16.90;53.30
64705;DHT22;51131;52.298;13.686;2022-12-05T15:57:05;16.90;53.60
64705;DHT22;51131;52.298;13.686;2022-12-05T15:59:41;16.90;53.60
64705;DHT22;51131;52.298;13.686;2022-12-05T16:02:18;16.90;53.40
64705;DHT22;51131;52.298;13.686;2022-12-05T16:04:54;16.90;53.70
64705;DHT22;51131;52.298;13.686;2022-12-05T16:07:22;16.90;53.70
64705;DHT22;51131;52.298;13.686;2022-12-05T16:09:49;16.80;53.50
64705;DHT22;51131;52.298;13.686;2022-12-05T16:14:42;16.90;53.80
64705;DHT22;51131;52.298;13.686;2022-12-05T16:17:27;16.90;53.60
64705;DHT22;51131;52.298;13.686;2022-12-05T16:20:08;16.90;53.40
64705;DHT22;51131;52.298;13.686;2022-12-05T16:22:35;16.90;53.50
64705;DHT22;51131;52.298;13.686;2022-12-05T16:25:03;16.80;53.70
64705;DHT22;51131;52.298;13.686;2022-12-05T16:27:37;16.90;53.70
64705;DHT22;51131;52.298;13.686;2022-12-05T16:32:38;16.80;53.80
64705;DHT22;51131;52.298;13.686;2022-12-05T16:38:01;16.70;56.50
64705;DHT22;51131;52.298;13.686;2022-12-05T16:40:27;16.90;58.50
64705;DHT22;51131;52.298;13.686;2022-12-05T16:43:04;16.80;56.80
64705;DHT22;51131;52.298;13.686;2022-12-05T16:45:42;16.80;55.60
64705;DHT22;51131;52.298;13.686;2022-12-05T16:50:44;16.80;54.20
64705;DHT22;51131;52.298;13.686;2022-12-05T16:53:21;16.80;53.90
64705;DHT22;51131;52.298;13.686;2022-12-05T16:55:50;16.80;54.00
64705;DHT22;51131;52.298;13.686;2022-12-05T16:58:20;16.80;54.10
64705;DHT22;51131;52.298;13.686;2022-12-05T17:00:47;16.80;54.10
64705;DHT22;51131;52.298;13.686;2022-12-05T17:03:14;16.80;54.60
64705;DHT22;51131;52.298;13.686;2022-12-05T17:06:00;16.80;54.60
64705;DHT22;51131;52.298;13.686;2022-12-05T17:08:27;16.80;54.20
64705;DHT22;51131;52.298;13.686;2022-12-05T17:10:54;16.80;54.40
64705;DHT22;51131;52.298;13.686;2022-12-05T17:13:21;16.90;54.70
64705;DHT22;51131;52.298;13.686;2022-12-05T17:15:47;17.00;54.50
64705;DHT22;51131;52.298;13.686;2022-12-05T17:18:16;16.90;54.70
64705;DHT22;51131;52.298;13.686;2022-12-05T17:24:27;17.00;54.80
64705;DHT22;51131;52.298;13.686;2022-12-05T17:26:54;17.10;55.10
64705;DHT22;51131;52.298;13.686;2022-12-05T17:29:21;17.10;55.60
64705;DHT22;51131;52.298;13.686;2022-12-05T17:31:48;17.20;55.40
64705;DHT22;51131;52.298;13.686;2022-12-05T17:34:15;17.20;55.30
64705;DHT22;51131;52.298;13.686;2022-12-05T17:36:43;17.30;55.50
64705;DHT22;51131;52.298;13.686;2022-12-05T17:39:10;17.20;55.40
64705;DHT22;51131;52.298;13.686;2022-12-05T17:41:36;17.10;54.90
64705;DHT22;51131;52.298;13.686;2022-12-05T17:44:03;17.10;55.10
64705;DHT22;51131;52.298;13.686;2022-12-05T17:46:30;17.10;55.60
64705;DHT22;51131;52.298;13.686;2022-12-05T17:48:57;17.10;55.70
64705;DHT22;51131;52.298;13.686;2022-12-05T17:51:24;17.10;55.00
64705;DHT22;51131;52.298;13.686;2022-12-05T17:53:51;17.10;55.40
64705;DHT22;51131;52.298;13.686;2022-12-05T17:56:18;17.10;55.60
64705;DHT22;51131;52.298;13.686;2022-12-05T17:58:45;17.00;55.70
64705;DHT22;51131;52.298;13.686;2022-12-05T18:01:16;17.00;55.60
64705;DHT22;51131;52.298;13.686;2022-12-05T18:03:44;17.00;55.50
64705;DHT22;51131;52.298;13.686;2022-12-05T18:06:10;17.00;55.40
64705;DHT22;51131;52.298;13.686;2022-12-05T18:08:37;17.00;55.70
64705;DHT22;51131;52.298;13.686;2022-12-05T18:11:10;17.00;55.70
64705;DHT22;51131;52.298;13.686;2022-12-05T18:13:37;17.00;55.80
64705;DHT22;51131;52.298;13.686;2022-12-05T18:16:07;17.00;55.90
64705;DHT22;51131;52.298;13.686;2022-12-05T18:18:34;17.00;55.60